createdAt,value
2018-07-09T00:03:52.932Z,98.10
2018-07-09T00:08:56.927Z,98.30
2018-07-09T00:14:00.926Z,98.30
2018-07-09T00:19:05.366Z,98.50
2018-07-09T00:24:09.432Z,98.40
2018-07-09T00:29:13.393Z,98.40
2018-07-09T00:34:17.409Z,98.30
2018-07-09T00:39:21.441Z,98.20
2018-07-09T00:44:25.708Z,98.50
2018-07-09T00:49:29.722Z,98.40
2018-07-09T00:54:33.696Z,98.70
2018-07-09T00:59:37.748Z,98.80
2018-07-09T01:04:41.743Z,99.00
2018-07-09T01:09:45.722Z,99.40
2018-07-09T01:14:49.719Z,99.50
2018-07-09T01:19:53.920Z,99.40
2018-07-09T01:24:57.919Z,99.60
2018-07-09T01:30:10.592Z,99.80
2018-07-09T01:40:18.470Z,99.90
2018-07-09T01:50:27.051Z,99.90
2018-07-09T01:55:31.069Z,99.90
2018-07-09T02:00:35.074Z,99.90
2018-07-09T02:05:39.059Z,99.90
2018-07-09T02:10:43.041Z,99.80
2018-07-09T02:15:47.020Z,99.70
2018-07-09T02:20:51.045Z,99.90
2018-07-09T02:25:55.079Z,99.90
2018-07-09T02:30:59.065Z,99.90
2018-07-09T02:36:03.071Z,99.90
2018-07-09T02:41:07.044Z,99.90
2018-07-09T02:46:11.046Z,99.90
2018-07-09T02:51:15.566Z,99.90
2018-07-09T02:56:19.544Z,99.90
2018-07-09T03:06:27.183Z,99.90
2018-07-09T03:11:32.090Z,99.90
2018-07-09T03:16:36.963Z,99.90
2018-07-09T03:21:41.990Z,99.90
2018-07-09T03:26:46.093Z,99.90
2018-07-09T03:31:50.078Z,99.90
2018-07-09T03:41:57.668Z,99.90
2018-07-09T03:47:01.777Z,99.90
2018-07-09T03:52:06.012Z,99.90
2018-07-09T03:57:10.062Z,99.90
2018-07-09T04:02:14.104Z,99.90
2018-07-09T04:12:21.659Z,99.90
2018-07-09T04:17:25.699Z,99.90
2018-07-09T04:22:29.841Z,99.90
2018-07-09T04:27:33.845Z,99.90
2018-07-09T04:32:37.836Z,99.90
2018-07-09T04:37:41.833Z,99.90
2018-07-09T04:42:45.836Z,99.90
2018-07-09T04:47:49.821Z,99.90
2018-07-09T04:52:53.828Z,99.90
2018-07-09T04:57:57.819Z,99.90
2018-07-09T05:03:01.842Z,99.90
2018-07-09T05:08:05.859Z,99.90
2018-07-09T05:18:13.451Z,99.90
2018-07-09T05:23:17.679Z,99.90
2018-07-09T05:28:21.655Z,99.90
2018-07-09T05:33:25.640Z,99.90
2018-07-09T05:38:29.645Z,99.90
2018-07-09T05:43:35.319Z,99.90
2018-07-09T05:48:39.316Z,99.90
2018-07-09T05:53:43.362Z,99.90
2018-07-09T05:58:47.401Z,99.90
2018-07-09T06:03:51.391Z,99.90
2018-07-09T06:08:55.402Z,99.30
2018-07-09T06:13:59.415Z,99.60
2018-07-09T06:19:03.424Z,99.50
2018-07-09T06:29:11.062Z,97.40
2018-07-09T06:34:15.077Z,97.80
2018-07-09T06:39:19.225Z,97.00
2018-07-09T06:44:23.235Z,96.30
2018-07-09T06:49:27.212Z,96.60
2018-07-09T06:54:31.224Z,95.60
2018-07-09T06:59:35.223Z,95.40
2018-07-09T07:04:39.416Z,95.20
2018-07-09T07:09:43.372Z,94.90
2018-07-09T07:14:47.391Z,93.70
2018-07-09T07:19:51.375Z,93.70
2018-07-09T07:24:55.475Z,93.70
2018-07-09T07:35:03.079Z,94.00
2018-07-09T07:40:07.071Z,93.20
2018-07-09T07:45:11.067Z,93.30
2018-07-09T07:50:15.080Z,93.70
2018-07-09T07:55:19.170Z,93.30
2018-07-09T08:00:23.152Z,93.40
2018-07-09T08:05:27.166Z,92.70
2018-07-09T08:10:31.143Z,92.10
2018-07-09T08:15:35.201Z,91.70
2018-07-09T08:20:39.168Z,91.10
2018-07-09T08:25:43.335Z,90.90
2018-07-09T08:30:47.215Z,90.40
2018-07-09T08:35:51.199Z,88.70
2018-07-09T08:40:55.224Z,85.90
2018-07-09T08:45:59.236Z,83.90
2018-07-09T08:51:03.293Z,85.80
2018-07-09T08:56:07.329Z,87.40
2018-07-09T09:06:14.956Z,87.60
2018-07-09T09:11:19.771Z,85.10
2018-07-09T09:16:23.800Z,83.00
2018-07-09T09:21:27.778Z,81.50
2018-07-09T09:26:31.820Z,79.90
2018-07-09T09:31:35.942Z,80.10
2018-07-09T09:36:39.940Z,77.50
2018-07-09T09:46:47.569Z,75.10
2018-07-09T09:51:51.563Z,72.90
2018-07-09T09:56:55.693Z,74.30
2018-07-09T10:01:59.689Z,71.10
2018-07-09T10:07:03.693Z,71.20
2018-07-09T10:12:07.668Z,70.00
2018-07-09T10:17:11.655Z,72.00
2018-07-09T10:22:15.644Z,74.10
2018-07-09T10:32:23.564Z,69.70
2018-07-09T10:37:27.587Z,69.50
2018-07-09T10:42:31.654Z,71.20
2018-07-09T10:47:35.702Z,74.50
2018-07-09T10:52:39.706Z,75.00
2018-07-09T10:57:43.713Z,76.70
2018-07-09T11:02:47.708Z,79.20
2018-07-09T11:07:51.728Z,81.20
2018-07-09T11:12:55.707Z,81.60
2018-07-09T11:23:03.391Z,81.10
2018-07-09T11:28:07.396Z,77.90
2018-07-09T11:33:11.392Z,72.90
2018-07-09T11:38:15.439Z,73.80
2018-07-09T11:43:19.444Z,74.30
2018-07-09T11:48:23.480Z,74.10
2018-07-09T11:53:27.504Z,70.50
2018-07-09T11:58:31.553Z,69.50
2018-07-09T12:03:35.498Z,67.40
2018-07-09T12:08:39.505Z,69.00
2018-07-09T12:13:43.475Z,71.30
2018-07-09T12:18:47.476Z,75.00
2018-07-09T12:23:51.501Z,77.60
2018-07-09T12:28:55.600Z,80.70
2018-07-09T12:33:59.531Z,82.30
2018-07-09T12:39:04.935Z,83.00
2018-07-09T12:44:08.924Z,82.40
2018-07-09T12:49:12.918Z,82.60
2018-07-09T12:54:17.023Z,82.10
2018-07-09T12:59:21.011Z,80.40
2018-07-09T13:04:25.727Z,79.10
2018-07-09T13:09:30.603Z,79.90
2018-07-09T13:14:35.415Z,81.20
2018-07-09T13:19:39.323Z,83.10
2018-07-09T13:24:43.328Z,82.90
2018-07-09T13:29:48.279Z,81.00
2018-07-09T13:34:52.267Z,77.40
2018-07-09T13:39:56.252Z,77.30
2018-07-09T13:50:03.914Z,78.90
2018-07-09T13:55:07.908Z,77.90
2018-07-09T14:00:11.896Z,77.80
2018-07-09T14:05:16.546Z,79.10
2018-07-09T14:10:20.609Z,80.40
2018-07-09T14:15:24.517Z,82.50
2018-07-09T14:20:44.077Z,83.40
2018-07-09T14:25:48.095Z,84.90
2018-07-09T14:30:52.095Z,86.70
2018-07-09T14:40:59.724Z,89.00
2018-07-09T14:51:07.367Z,89.60
2018-07-09T15:01:15.028Z,89.90
2018-07-09T15:06:19.053Z,90.40
2018-07-09T15:11:23.078Z,90.70
2018-07-09T15:16:27.109Z,91.40
2018-07-09T15:21:31.096Z,91.90
2018-07-09T15:26:35.071Z,92.20
2018-07-09T15:31:50.507Z,92.30
2018-07-09T15:36:55.564Z,92.30
2018-07-09T15:41:59.567Z,92.40
2018-07-09T15:47:03.577Z,92.20
2018-07-09T15:52:07.660Z,91.70
2018-07-09T15:57:11.698Z,91.10
2018-07-09T16:02:15.731Z,90.80
2018-07-09T16:07:19.745Z,91.10
2018-07-09T16:12:24.507Z,91.20
2018-07-09T16:17:28.553Z,91.00
2018-07-09T16:22:32.545Z,91.20
2018-07-09T16:27:36.583Z,92.10
2018-07-09T16:32:41.323Z,92.70
2018-07-09T16:37:45.339Z,93.10
2018-07-09T16:42:49.347Z,93.50
2018-07-09T16:47:53.343Z,94.00
2018-07-09T16:52:57.372Z,93.90
2018-07-09T16:58:01.360Z,94.20
2018-07-09T17:03:05.457Z,94.50
2018-07-09T17:08:10.210Z,94.80
2018-07-09T17:13:14.243Z,95.20
2018-07-09T17:18:18.266Z,95.60
2018-07-09T17:23:22.329Z,95.70
2018-07-09T17:28:26.356Z,96.40
2018-07-09T17:33:30.475Z,97.00
2018-07-09T17:38:34.487Z,97.30
2018-07-09T17:43:38.536Z,97.60
2018-07-09T17:48:42.472Z,97.90
2018-07-09T17:53:47.220Z,98.00
2018-07-09T17:58:51.247Z,98.20
2018-07-09T18:03:55.240Z,98.30
2018-07-09T18:08:59.275Z,98.50
2018-07-09T18:14:03.371Z,98.70
2018-07-09T18:19:07.318Z,98.80
2018-07-09T18:24:11.304Z,98.90
2018-07-09T18:29:15.496Z,98.80
2018-07-09T18:34:19.551Z,99.10
2018-07-09T18:39:23.593Z,99.50
2018-07-09T18:44:28.559Z,99.90
2018-07-09T18:49:32.573Z,99.90
2018-07-09T18:54:36.610Z,99.90
2018-07-09T18:59:40.611Z,99.90
2018-07-09T19:04:44.995Z,99.90
2018-07-09T19:09:49.490Z,99.90
2018-07-09T19:14:56.479Z,99.90
2018-07-09T19:20:07.172Z,99.90
2018-07-09T19:25:10.187Z,99.90
2018-07-09T19:30:13.208Z,99.90
2018-07-09T19:35:16.600Z,99.90
2018-07-09T19:40:19.623Z,99.90
2018-07-09T19:45:22.627Z,99.90
2018-07-09T19:50:25.670Z,99.90
2018-07-09T19:55:28.672Z,99.90
2018-07-09T20:00:31.954Z,99.90
2018-07-09T20:05:34.982Z,99.90
2018-07-09T20:10:43.501Z,99.90
2018-07-09T20:15:51.806Z,99.90
2018-07-09T20:20:54.847Z,99.90
2018-07-09T20:25:57.832Z,99.90
2018-07-09T20:31:00.883Z,99.90
2018-07-09T20:41:07.132Z,99.90
2018-07-09T20:46:10.150Z,99.90
2018-07-09T20:51:13.162Z,99.90
2018-07-09T21:01:19.329Z,99.90
2018-07-09T21:06:22.332Z,99.90
2018-07-09T21:11:26.107Z,99.90
2018-07-09T21:16:29.135Z,99.90
2018-07-09T21:21:32.135Z,99.90
2018-07-09T21:26:35.136Z,99.90
2018-07-09T21:31:38.150Z,99.90
2018-07-09T21:36:41.185Z,99.90
2018-07-09T21:41:44.188Z,99.90
2018-07-09T21:46:47.206Z,99.90
2018-07-09T21:51:50.211Z,99.90
2018-07-09T21:56:53.238Z,99.90
2018-07-09T22:01:56.239Z,99.90
2018-07-09T22:06:59.299Z,99.90
2018-07-09T22:12:02.564Z,99.90
2018-07-09T22:17:05.573Z,99.90
2018-07-09T22:22:08.586Z,99.90
2018-07-09T22:27:11.649Z,99.90
2018-07-09T22:32:15.696Z,99.90
2018-07-09T22:37:20.379Z,99.90
2018-07-09T22:42:24.369Z,99.90
2018-07-09T22:47:28.383Z,99.90
2018-07-09T22:52:32.375Z,99.90
2018-07-09T22:57:36.379Z,99.90
2018-07-09T23:02:40.424Z,99.90
2018-07-09T23:13:30.140Z,99.90
2018-07-09T23:18:58.435Z,99.90
2018-07-09T23:24:01.648Z,99.90
2018-07-09T23:29:04.767Z,99.90
2018-07-09T23:34:08.406Z,99.90
2018-07-09T23:39:13.006Z,99.90
2018-07-09T23:44:16.012Z,99.90
2018-07-09T23:49:19.084Z,99.90
2018-07-09T23:54:22.064Z,99.90
2018-07-09T23:59:37.388Z,99.90
